Terminal Aerodrome Forecast
Issued by NWS

Home | Current Version | Previous Version | Text Only | Print | Product List | Glossary On
Versions: 1 2 3 4 5 6 7 8 9 10 11 12 13 14 15 16 17 18 19 20 21 22 23 24 25 26 27 28 29 30 31 32 33 34 35 36 37 38 39 40 41 42 43 44 45 46 47 48 49 50
000
FTUS41 KPBZ 181211 AAE
TAFFKL
TAF AMD
KFKL 181211Z 1812/1912 14010KT 1SM -SN OVC008
     FM181600 15015G25KT 1SM -FZRASN OVC008
     FM182000 19015G25KT 2SM -RA OVC007
     FM190100 23015G25KT 5SM -SHRA OVC010
     FM190400 26015G25KT 5SM -SHSN OVC010=

USA.gov is the U.S. government's official web portal to all federal, state and local government web resources and services.